Data Viewer
| City | State | Eastern Time | Source | Temp | DewPt | RH | BP | 5 Min Precip | Wind Speed | Wind Dir | 5 Min Wind Max | 5 Min Wind Max Dir |
|---|---|---|---|---|---|---|---|---|---|---|---|---|
| New York LGA | NY | 2026-05-05 17:00 | ASOS | 73 | 52 | 47 | 29.75 | 13 | SSE | |||
| New York LGA | NY | 2026-05-06 09:35 | ASOS | 64 | 54 | 68 | 29.80 | 13 | SSE | |||
| New York LGA | NY | 2026-05-06 08:35 | ASOS | 66 | 54 | 64 | 29.81 | 13 | S | |||
| New York LGA | NY | 2026-05-06 08:51 | ASOS | 67 | 55 | 66 | 29.80 | 10 | S | |||
| New York LGA | NY | 2026-05-06 09:15 | ASOS | 66 | 54 | 64 | 29.81 | 13 | S | |||
| New York LGA | NY | 2026-05-06 09:20 | ASOS | 64 | 54 | 68 | 29.81 | 13 | S | |||
| New York LGA | NY | 2026-05-06 09:25 | ASOS | 66 | 54 | 64 | 29.81 | 13 | S | |||
| New York LGA | NY | 2026-05-06 09:30 | ASOS | 66 | 54 | 64 | 29.81 | 14 | SSE | |||
| New York LGA | NY | 2026-05-06 09:51 | ASOS | 65 | 54 | 68 | 29.81 | 13 | SSE | |||
| New York LGA | NY | 2026-05-06 08:25 | ASOS | 66 | 54 | 64 | 29.81 | 12 | SSW | |||
| New York LGA | NY | 2026-05-06 10:15 | ASOS | 64 | 54 | 68 | 29.80 | 10 | SSE | |||
| New York LGA | NY | 2026-05-06 10:20 | ASOS | 64 | 54 | 68 | 29.80 | 13 | SSE | |||
| New York LGA | NY | 2026-05-06 10:25 | ASOS | 64 | 54 | 68 | 29.80 | 12 | SSE | |||
| New York LGA | NY | 2026-05-06 10:30 | ASOS | 64 | 54 | 68 | 29.80 | 10 | SSE | |||
| New York LGA | NY | 2026-05-06 10:35 | ASOS | 64 | 54 | 68 | 29.80 | 8 | SSE | |||
| New York LGA | NY | 2026-05-06 10:51 | ASOS | 65 | 54 | 68 | 29.80 | 12 | SSE | |||
| New York LGA | NY | 2026-05-06 08:30 | ASOS | 66 | 54 | 64 | 29.81 | 10 | SSW | |||
| New York LGA | NY | 2026-05-06 08:20 | ASOS | 66 | 54 | 64 | 29.81 | 13 | SSW | |||
| New York LGA | NY | 2026-05-06 11:25 | ASOS | 64 | 54 | 68 | 29.79 | 9 | SSE | |||
| New York LGA | NY | 2026-05-06 06:35 | ASOS | 57 | 54 | 88 | 29.82 | 8 | S | |||
| New York LGA | NY | 2026-05-06 05:35 | ASOS | 57 | 54 | 88 | 29.81 | 9 | S | |||
| New York LGA | NY | 2026-05-06 05:51 | ASOS | 58 | 53 | 84 | 29.81 | 8 | S | |||
| New York LGA | NY | 2026-05-06 06:15 | ASOS | 57 | 54 | 88 | 29.81 | 9 | S | |||
| New York LGA | NY | 2026-05-06 06:20 | ASOS | 57 | 54 | 88 | 29.81 | 9 | S | |||
| New York LGA | NY | 2026-05-06 06:25 | ASOS | 57 | 54 | 88 | 29.81 | 8 | S | |||
| New York LGA | NY | 2026-05-06 06:30 | ASOS | 57 | 54 | 88 | 29.82 | 8 | S | |||
| New York LGA | NY | 2026-05-06 06:51 | ASOS | 60 | 53 | 78 | 29.82 | 9 | S | |||
| New York LGA | NY | 2026-05-06 08:15 | ASOS | 66 | 55 | 68 | 29.81 | 8 | S | |||
| New York LGA | NY | 2026-05-06 07:15 | ASOS | 61 | 54 | 77 | 29.81 | 9 | S | |||
| New York LGA | NY | 2026-05-06 07:20 | ASOS | 63 | 54 | 72 | 29.81 | 6 | S | |||
| New York LGA | NY | 2026-05-06 07:25 | ASOS | 63 | 54 | 72 | 29.82 | 10 | S | |||
| New York LGA | NY | 2026-05-06 07:30 | ASOS | 63 | 54 | 72 | 29.82 | 10 | S | |||
| New York LGA | NY | 2026-05-06 07:35 | ASOS | 63 | 54 | 72 | 29.82 | 12 | S | |||
| New York LGA | NY | 2026-05-06 07:40 | ASOS | 64 | 54 | 68 | 29.82 | 13 | S | |||
| New York LGA | NY | 2026-05-06 07:51 | ASOS | 64 | 54 | 70 | 29.82 | 13 | S | |||
| New York LGA | NY | 2026-05-06 11:20 | ASOS | 64 | 54 | 68 | 29.80 | 10 | SSE | |||
| New York LGA | NY | 2026-05-06 11:30 | ASOS | 64 | 54 | 68 | 29.79 | 9 | SSE | |||
| New York LGA | NY | 2026-05-06 05:25 | ASOS | 57 | 52 | 82 | 29.81 | 9 | S | |||
| New York LGA | NY | 2026-05-06 15:30 | ASOS | 63 | 59 | 88 | 29.74 | 5 | S | |||
| New York LGA | NY | 2026-05-06 15:00 | ASOS | 63 | 57 | 83 | 29.75 | 8 | SSW | |||
| New York LGA | NY | 2026-05-06 15:05 | ASOS | 61 | 57 | 88 | 29.75 | 10 | S | |||
| New York LGA | NY | 2026-05-06 15:10 | ASOS | 61 | 57 | 88 | 29.75 | 7 | SSW | |||
| New York LGA | NY | 2026-05-06 15:15 | ASOS | 61 | 57 | 88 | 29.74 | 7 | SSW | |||
| New York LGA | NY | 2026-05-06 15:20 | ASOS | 61 | 57 | 88 | 29.74 | 6 | SSW | |||
| New York LGA | NY | 2026-05-06 15:25 | ASOS | 63 | 59 | 88 | 29.74 | 8 | SSW | |||
| New York LGA | NY | 2026-05-06 15:35 | ASOS | 63 | 59 | 88 | 29.74 | 8 | S | |||
| New York LGA | NY | 2026-05-06 14:35 | ASOS | 61 | 55 | 82 | 29.74 | 10 | S | |||
| New York LGA | NY | 2026-05-06 15:46 | ASOS | 63 | 61 | 94 | 29.74 | 6 | ||||
| New York LGA | NY | 2026-05-06 15:51 | ASOS | 62 | 59 | 90 | 29.74 | 6 | S | |||
| New York LGA | NY | 2026-05-06 16:10 | ASOS | 63 | 61 | 94 | 29.73 | 7 | SSE | |||
| New York LGA | NY | 2026-05-06 16:15 | ASOS | 64 | 61 | 88 | 29.72 | 7 | S | |||
| New York LGA | NY | 2026-05-06 16:20 | ASOS | 64 | 61 | 88 | 29.72 | 3 | S | |||
| New York LGA | NY | 2026-05-06 16:25 | ASOS | 64 | 61 | 88 | 29.72 | 5 | SSE | |||
| New York LGA | NY | 2026-05-06 16:30 | ASOS | 63 | 61 | 94 | 29.72 | 7 | S | |||
| New York LGA | NY | 2026-05-06 14:51 | ASOS | 61 | 56 | 83 | 29.75 | 10 | S | |||
| New York LGA | NY | 2026-05-06 14:30 | ASOS | 61 | 57 | 88 | 29.74 | 12 | S | |||
| New York LGA | NY | 2026-05-06 11:35 | ASOS | 66 | 54 | 64 | 29.79 | 9 | SE | |||
| New York LGA | NY | 2026-05-06 12:51 | ASOS | 61 | 56 | 83 | 29.78 | 10 | SSE | |||
| New York LGA | NY | 2026-05-06 11:51 | ASOS | 65 | 54 | 68 | 29.79 | 10 | SSE | |||
| New York LGA | NY | 2026-05-06 12:15 | ASOS | 64 | 54 | 68 | 29.79 | 10 | SSE | |||
| New York LGA | NY | 2026-05-06 12:25 | ASOS | 64 | 55 | 73 | 29.79 | 9 | SSE | |||
| New York LGA | NY | 2026-05-06 12:30 | ASOS | 63 | 55 | 77 | 29.78 | 10 | SSE | |||
| New York LGA | NY | 2026-05-06 12:35 | ASOS | 63 | 55 | 77 | 29.78 | 8 | SSE | |||
| New York LGA | NY | 2026-05-06 12:40 | ASOS | 63 | 55 | 77 | 29.78 | 9 | SSE | |||
| New York LGA | NY | 2026-05-06 13:20 | ASOS | 61 | 57 | 88 | 29.75 | 10 | SSE | |||
| New York LGA | NY | 2026-05-06 14:25 | ASOS | 61 | 57 | 88 | 29.75 | 12 | SSE | |||
| New York LGA | NY | 2026-05-06 13:25 | ASOS | 61 | 55 | 82 | 29.75 | 12 | SSE | |||
| New York LGA | NY | 2026-05-06 13:30 | ASOS | 61 | 55 | 82 | 29.75 | 10 | SSE | |||
| New York LGA | NY | 2026-05-06 13:35 | ASOS | 61 | 57 | 88 | 29.75 | 10 | SSE | |||
| New York LGA | NY | 2026-05-06 13:40 | ASOS | 63 | 57 | 83 | 29.75 | 9 | SSE | |||
| New York LGA | NY | 2026-05-06 13:51 | ASOS | 63 | 58 | 84 | 29.76 | 9 | SSE | |||
| New York LGA | NY | 2026-05-06 14:15 | ASOS | 63 | 57 | 83 | 29.75 | 12 | SSE | |||
| New York LGA | NY | 2026-05-06 14:20 | ASOS | 63 | 57 | 83 | 29.75 | 10 | S | |||
| New York LGA | NY | 2026-05-06 05:30 | ASOS | 57 | 52 | 82 | 29.81 | 10 | S | |||
| New York LGA | NY | 2026-05-06 05:20 | ASOS | 57 | 52 | 82 | 29.81 | 9 | S | |||
| New York LGA | NY | 2026-05-05 17:05 | ASOS | 73 | 52 | 47 | 29.75 | 12 | S | |||
| New York LGA | NY | 2026-05-05 20:30 | ASOS | 64 | 52 | 64 | 29.81 | 10 | S | |||
| New York LGA | NY | 2026-05-05 19:20 | ASOS | 70 | 52 | 53 | 29.78 | 12 | S | |||
| New York LGA | NY | 2026-05-05 19:25 | ASOS | 70 | 52 | 53 | 29.78 | 14 | S | |||
| New York LGA | NY | 2026-05-05 19:51 | ASOS | 67 | 51 | 57 | 29.80 | 14 | S | |||
| New York LGA | NY | 2026-05-05 20:15 | ASOS | 66 | 52 | 60 | 29.80 | 9 | SSE | |||
| New York LGA | NY | 2026-05-05 20:20 | ASOS | 64 | 52 | 64 | 29.80 | 13 | SSE | |||
| New York LGA | NY | 2026-05-05 20:25 | ASOS | 64 | 52 | 64 | 29.80 | 12 | S | |||
| New York LGA | NY | 2026-05-05 20:35 | ASOS | 64 | 52 | 64 | 29.81 | 12 | S | |||
| New York LGA | NY | 2026-05-05 19:10 | ASOS | 70 | 52 | 53 | 29.78 | 12 | S | |||
| New York LGA | NY | 2026-05-05 20:51 | ASOS | 65 | 51 | 61 | 29.81 | 10 | S | |||
| New York LGA | NY | 2026-05-05 21:15 | ASOS | 66 | 52 | 60 | 29.82 | 10 | S | |||
| New York LGA | NY | 2026-05-05 21:20 | ASOS | 66 | 52 | 60 | 29.82 | 10 | S | |||
| New York LGA | NY | 2026-05-05 21:25 | ASOS | 66 | 52 | 60 | 29.82 | 9 | S | |||
| New York LGA | NY | 2026-05-05 21:40 | ASOS | 66 | 52 | 60 | 29.82 | 12 | S | |||
| New York LGA | NY | 2026-05-05 21:51 | ASOS | 67 | 51 | 57 | 29.83 | 13 | S | |||
| New York LGA | NY | 2026-05-05 19:15 | ASOS | 70 | 52 | 53 | 29.78 | 13 | S | |||
| New York LGA | NY | 2026-05-05 19:05 | ASOS | 70 | 52 | 53 | 29.77 | 14 | S | |||
| New York LGA | NY | 2026-05-05 22:20 | ASOS | 64 | 50 | 60 | 29.83 | 9 | S | |||
| New York LGA | NY | 2026-05-05 17:51 | ASOS | 75 | 52 | 45 | 29.75 | 13 | S | |||
| New York LGA | NY | 2026-05-05 17:10 | ASOS | 73 | 52 | 47 | 29.75 | 15 | SSE | |||
| New York LGA | NY | 2026-05-05 17:15 | ASOS | 73 | 52 | 47 | 29.75 | 13 | SSE | |||
| New York LGA | NY | 2026-05-05 17:20 | ASOS | 73 | 52 | 47 | 29.75 | 15 | SSE | |||
| New York LGA | NY | 2026-05-05 17:25 | ASOS | 73 | 52 | 47 | 29.75 | 13 | SSE | |||
| New York LGA | NY | 2026-05-05 17:35 | ASOS | 73 | 52 | 47 | 29.75 | 13 | S | |||
| New York LGA | NY | 2026-05-05 17:40 | ASOS | 73 | 52 | 47 | 29.75 | 13 | S | |||
| New York LGA | NY | 2026-05-05 18:00 | ASOS | 73 | 52 | 47 | 29.75 | 16 | S | |||
| New York LGA | NY | 2026-05-05 18:51 | ASOS | 71 | 52 | 51 | 29.77 | 16 | S | |||
| New York LGA | NY | 2026-05-05 18:05 | ASOS | 73 | 52 | 47 | 29.75 | 14 | S | |||
| New York LGA | NY | 2026-05-05 18:10 | ASOS | 73 | 52 | 47 | 29.75 | 14 | S | |||
| New York LGA | NY | 2026-05-05 18:15 | ASOS | 73 | 52 | 47 | 29.75 | 14 | S | |||
| New York LGA | NY | 2026-05-05 18:20 | ASOS | 73 | 52 | 47 | 29.76 | 15 | S | |||
| New York LGA | NY | 2026-05-05 18:25 | ASOS | 73 | 52 | 47 | 29.76 | 17 | S | |||
| New York LGA | NY | 2026-05-05 18:30 | ASOS | 73 | 52 | 47 | 29.76 | 14 | S | |||
| New York LGA | NY | 2026-05-05 18:35 | ASOS | 73 | 52 | 47 | 29.76 | 17 | S | |||
| New York LGA | NY | 2026-05-05 22:15 | ASOS | 64 | 50 | 60 | 29.83 | 10 | S | |||
| New York LGA | NY | 2026-05-05 22:25 | ASOS | 66 | 50 | 56 | 29.83 | 12 | S | |||
| New York LGA | NY | 2026-05-06 05:15 | ASOS | 57 | 52 | 82 | 29.81 | 9 | S | |||
| New York LGA | NY | 2026-05-06 03:30 | ASOS | 57 | 52 | 82 | 29.82 | 10 | S | |||
| New York LGA | NY | 2026-05-06 02:25 | ASOS | 59 | 52 | 77 | 29.82 | 13 | S | |||
| New York LGA | NY | 2026-05-06 02:30 | ASOS | 57 | 52 | 82 | 29.83 | 10 | S | |||
| New York LGA | NY | 2026-05-06 02:35 | ASOS | 57 | 52 | 82 | 29.83 | 9 | S | |||
| New York LGA | NY | 2026-05-06 02:51 | ASOS | 58 | 52 | 81 | 29.82 | 9 | S | |||
| New York LGA | NY | 2026-05-06 03:20 | ASOS | 57 | 52 | 82 | 29.82 | 9 | S | |||
| New York LGA | NY | 2026-05-06 03:25 | ASOS | 57 | 52 | 82 | 29.82 | 9 | S | |||
| New York LGA | NY | 2026-05-06 03:35 | ASOS | 57 | 52 | 82 | 29.82 | 10 | S | |||
| New York LGA | NY | 2026-05-06 02:15 | ASOS | 59 | 52 | 77 | 29.82 | 14 | SSE | |||
| New York LGA | NY | 2026-05-06 03:51 | ASOS | 58 | 52 | 81 | 29.82 | 10 | S | |||
| New York LGA | NY | 2026-05-06 04:15 | ASOS | 57 | 52 | 82 | 29.82 | 10 | S | |||
| New York LGA | NY | 2026-05-06 04:20 | ASOS | 57 | 52 | 82 | 29.82 | 10 | S | |||
| New York LGA | NY | 2026-05-06 04:25 | ASOS | 57 | 52 | 82 | 29.82 | 12 | S | |||
| New York LGA | NY | 2026-05-06 04:30 | ASOS | 57 | 52 | 82 | 29.82 | 10 | S | |||
| New York LGA | NY | 2026-05-06 04:35 | ASOS | 57 | 52 | 82 | 29.82 | 9 | S | |||
| New York LGA | NY | 2026-05-06 04:51 | ASOS | 58 | 52 | 81 | 29.82 | 9 | S | |||
| New York LGA | NY | 2026-05-06 02:20 | ASOS | 59 | 52 | 77 | 29.82 | 14 | S | |||
| New York LGA | NY | 2026-05-06 01:51 | ASOS | 59 | 51 | 75 | 29.82 | 13 | S | |||
| New York LGA | NY | 2026-05-05 22:30 | ASOS | 66 | 52 | 60 | 29.83 | 10 | S | |||
| New York LGA | NY | 2026-05-05 23:35 | ASOS | 66 | 52 | 60 | 29.83 | 12 | S | |||
| New York LGA | NY | 2026-05-05 22:35 | ASOS | 66 | 50 | 56 | 29.83 | 10 | S | |||
| New York LGA | NY | 2026-05-05 22:51 | ASOS | 66 | 51 | 59 | 29.83 | 10 | S | |||
| New York LGA | NY | 2026-05-05 23:15 | ASOS | 66 | 52 | 60 | 29.83 | 10 | S | |||
| New York LGA | NY | 2026-05-05 23:20 | ASOS | 66 | 52 | 60 | 29.83 | 9 | S | |||
| New York LGA | NY | 2026-05-05 23:25 | ASOS | 66 | 52 | 60 | 29.83 | 10 | S | |||
| New York LGA | NY | 2026-05-05 23:30 | ASOS | 66 | 52 | 60 | 29.83 | 12 | S | |||
| New York LGA | NY | 2026-05-05 23:51 | ASOS | 67 | 52 | 59 | 29.83 | 13 | S | |||
| New York LGA | NY | 2026-05-06 01:35 | ASOS | 59 | 52 | 77 | 29.83 | 13 | S | |||
| New York LGA | NY | 2026-05-06 00:20 | ASOS | 63 | 52 | 68 | 29.84 | 10 | S | |||
| New York LGA | NY | 2026-05-06 00:25 | ASOS | 63 | 52 | 68 | 29.83 | 12 | SSE | |||
| New York LGA | NY | 2026-05-06 00:30 | ASOS | 63 | 52 | 68 | 29.84 | 10 | S | |||
| New York LGA | NY | 2026-05-06 00:51 | ASOS | 61 | 51 | 70 | 29.84 | 10 | S | |||
| New York LGA | NY | 2026-05-06 01:20 | ASOS | 61 | 52 | 72 | 29.83 | 10 | S | |||
| New York LGA | NY | 2026-05-06 01:25 | ASOS | 59 | 52 | 77 | 29.83 | 10 | S | |||
| New York LGA | NY | 2026-05-06 01:30 | ASOS | 59 | 52 | 77 | 29.83 | 12 | SSE | |||
| New York LGA | NY | 2026-05-06 16:51 | ASOS | 63 | 59 | 87 | 29.71 | 7 | S |
data collection created in 0.021669864654541 (queried in 0.004707) rendered in: 0.00021505355834961

